Time;durP1;ratioP1;P1;durP2;ratioP2;P2;SDS_P1;SDS_P2;PMS_P1;PMS_P2;Temp;Humidity;BMP_temperature;BMP_pressure;BME280_temperature;BME280_humidity;BME280_pressure;Samples;Min_cycle;Max_cycle;Signal;HPM_P1;HPM_P2
2022/12/14 00:01:16;;;;;;;33.20;15.43;;;-1.50;99.90;;;;;;5027034;28;20064;-74
2022/12/14 00:03:43;;;;;;;31.67;15.27;;;-1.50;99.90;;;;;;5053445;28;20481;-75
2022/12/14 00:06:18;;;;;;;30.30;15.10;;;-1.50;99.90;;;;;;5030475;28;20034;-76
2022/12/14 00:08:45;;;;;;;32.60;14.55;;;-1.50;99.90;;;;;;5036642;28;20032;-74
2022/12/14 00:11:14;;;;;;;23.88;14.02;;;-1.50;99.90;;;;;;5045138;28;20029;-75
2022/12/14 00:13:41;;;;;;;30.33;15.05;;;-1.50;99.90;;;;;;5055251;28;20013;-76
2022/12/14 00:16:11;;;;;;;32.22;15.55;;;-1.50;99.90;;;;;;5054252;28;20017;-75
2022/12/14 00:18:37;;;;;;;25.52;14.20;;;-1.50;99.90;;;;;;5053652;28;20100;-75
2022/12/14 00:21:05;;;;;;;31.88;15.75;;;-1.50;99.90;;;;;;5046785;28;20374;-75
2022/12/14 00:23:31;;;;;;;29.63;14.20;;;-1.50;99.90;;;;;;5049070;28;20128;-76
2022/12/14 00:25:56;;;;;;;31.55;15.85;;;-1.50;99.90;;;;;;5053534;28;20060;-75
2022/12/14 00:28:25;;;;;;;30.13;14.60;;;-1.50;99.90;;;;;;5054681;28;20112;-75
2022/12/14 00:30:56;;;;;;;23.58;12.68;;;-1.50;99.90;;;;;;5053958;28;20099;-75
2022/12/14 00:33:22;;;;;;;27.02;14.25;;;-1.40;99.90;;;;;;5053978;28;20029;-75
2022/12/14 00:35:47;;;;;;;26.67;13.75;;;-1.50;99.90;;;;;;5054110;28;20488;-75
2022/12/14 00:38:16;;;;;;;25.83;13.45;;;-1.40;99.90;;;;;;5059239;28;20062;-75
2022/12/14 00:40:41;;;;;;;26.70;14.23;;;-1.40;99.90;;;;;;5061115;28;20112;-76
2022/12/14 00:43:07;;;;;;;24.05;12.55;;;-1.40;99.90;;;;;;5053734;28;20049;-75
2022/12/14 00:45:32;;;;;;;26.88;13.52;;;-1.40;99.90;;;;;;5054062;28;20063;-75
2022/12/14 00:47:58;;;;;;;29.90;13.88;;;-1.40;99.90;;;;;;5038600;28;20029;-74
2022/12/14 00:50:25;;;;;;;30.20;13.60;;;-1.50;99.90;;;;;;5053453;28;20108;-76
2022/12/14 00:52:50;;;;;;;23.05;13.13;;;-1.40;99.90;;;;;;5053472;28;20469;-75
2022/12/14 00:55:16;;;;;;;32.35;13.88;;;-1.50;99.90;;;;;;5053205;28;20027;-75
2022/12/14 00:57:41;;;;;;;25.25;14.15;;;-1.50;99.90;;;;;;5042553;28;20367;-74
2022/12/14 01:00:08;;;;;;;28.40;14.52;;;-1.50;99.90;;;;;;5053316;28;20020;-76
2022/12/14 01:02:34;;;;;;;25.88;13.75;;;-1.50;99.90;;;;;;5052941;28;20032;-75
2022/12/14 01:05:00;;;;;;;23.73;12.27;;;-1.40;99.90;;;;;;5039254;28;20029;-75
2022/12/14 01:07:25;;;;;;;24.73;13.20;;;-1.40;99.90;;;;;;5053523;28;20445;-75
2022/12/14 01:09:51;;;;;;;24.17;12.75;;;-1.40;99.90;;;;;;5039956;28;20030;-75
2022/12/14 01:12:16;;;;;;;24.38;12.85;;;-1.40;99.90;;;;;;5053910;28;20017;-75
2022/12/14 01:14:42;;;;;;;23.58;12.55;;;-1.40;99.90;;;;;;5052973;28;20032;-75
2022/12/14 01:17:08;;;;;;;17.08;11.40;;;-1.40;99.90;;;;;;5053239;28;20469;-75
2022/12/14 01:19:33;;;;;;;23.40;12.57;;;-1.40;99.90;;;;;;5053284;28;20025;-76
2022/12/14 01:21:59;;;;;;;18.45;12.50;;;-1.40;99.90;;;;;;5052009;28;20024;-75
2022/12/14 01:24:25;;;;;;;25.30;13.75;;;-1.50;99.90;;;;;;5053295;28;20123;-76
2022/12/14 01:26:50;;;;;;;23.92;13.80;;;-1.40;99.90;;;;;;5053445;28;20068;-74
2022/12/14 01:29:16;;;;;;;24.63;12.57;;;-1.40;99.90;;;;;;5052441;28;20492;-75
2022/12/14 01:31:42;;;;;;;22.35;12.38;;;-1.50;99.90;;;;;;5052117;28;20052;-75
2022/12/14 01:34:08;;;;;;;24.27;12.68;;;-1.40;99.90;;;;;;5048193;28;20101;-76
2022/12/14 01:36:35;;;;;;;19.98;11.38;;;-1.40;99.90;;;;;;5041717;28;20025;-76
2022/12/14 01:39:08;;;;;;;25.15;12.85;;;-1.50;99.90;;;;;;5051668;28;20458;-74
2022/12/14 01:41:44;;;;;;;22.40;12.32;;;-1.50;99.90;;;;;;5047182;28;20022;-74
2022/12/14 01:44:09;;;;;;;20.80;11.75;;;-1.50;99.90;;;;;;5044117;28;20036;-75
2022/12/14 01:46:39;;;;;;;23.27;11.90;;;-1.50;99.90;;;;;;5052206;28;20377;-75
2022/12/14 01:49:19;;;;;;;12.18;8.05;;;-1.50;99.90;;;;;;5051633;28;20060;-75
2022/12/14 01:51:47;;;;;;;;;;;-1.50;99.90;;;;;;5052343;28;20100;-75
2022/12/14 01:54:14;;;;;;;23.95;11.80;;;-1.50;99.90;;;;;;5041234;28;19991;-75
2022/12/14 01:56:43;;;;;;;19.98;11.70;;;-1.50;99.90;;;;;;5049412;28;20032;-75
2022/12/14 01:59:17;;;;;;;20.05;11.20;;;-1.60;99.90;;;;;;5052381;28;20029;-76
2022/12/14 02:01:43;;;;;;;22.17;12.35;;;-1.60;99.90;;;;;;5052613;28;20025;-75
2022/12/14 02:04:12;;;;;;;21.08;11.10;;;-1.60;99.90;;;;;;5051192;28;20028;-74
2022/12/14 02:06:40;;;;;;;21.33;11.27;;;-1.60;99.90;;;;;;5051469;28;20037;-74
2022/12/14 02:09:10;;;;;;;21.02;10.77;;;-1.60;99.90;;;;;;5051658;28;20078;-74
2022/12/14 02:11:56;;;;;;;17.08;10.98;;;-1.60;99.90;;;;;;5051426;28;20025;-75
2022/12/14 02:14:22;;;;;;;23.10;12.20;;;-1.60;99.90;;;;;;5050874;28;20025;-75
2022/12/14 02:16:53;;;;;;;20.17;11.05;;;-1.60;99.90;;;;;;5052096;28;20066;-76
2022/12/14 02:19:18;;;;;;;19.65;11.15;;;-1.60;99.90;;;;;;5051224;28;20123;-76
2022/12/14 02:22:01;;;;;;;19.60;11.10;;;-1.60;99.90;;;;;;5052633;28;20025;-76
2022/12/14 02:24:49;;;;;;;21.20;11.18;;;-1.60;99.90;;;;;;5053991;28;20068;-75
2022/12/14 02:27:23;;;;;;;22.33;11.05;;;-1.60;99.90;;;;;;5051911;28;20032;-75
2022/12/14 02:29:55;;;;;;;17.80;10.80;;;-1.60;99.90;;;;;;5015727;28;1059640;-75
2022/12/14 02:32:45;;;;;;;20.17;10.48;;;-1.60;99.90;;;;;;5054079;28;20452;-75
2022/12/14 02:35:29;;;;;;;19.42;10.82;;;-1.60;99.90;;;;;;5053719;28;20074;-74
2022/12/14 02:38:13;;;;;;;19.55;10.50;;;-1.60;99.90;;;;;;5059019;28;20068;-74
2022/12/14 02:40:59;;;;;;;22.75;10.45;;;-1.70;99.90;;;;;;5051710;28;20101;-75
2022/12/14 02:43:53;;;;;;;18.08;10.45;;;-1.70;99.90;;;;;;5052025;28;20064;-75
2022/12/14 02:46:41;;;;;;;19.05;9.88;;;-1.70;99.90;;;;;;5051405;28;20052;-75
2022/12/14 02:49:17;;;;;;;20.00;10.35;;;-1.80;99.90;;;;;;5052875;28;20025;-75
2022/12/14 02:51:54;;;;;;;19.67;10.70;;;-1.80;99.90;;;;;;5053142;28;20021;-75
2022/12/14 02:54:30;;;;;;;20.00;10.10;;;-1.80;99.90;;;;;;5052013;28;20029;-75
2022/12/14 02:57:07;;;;;;;17.23;10.50;;;-1.80;99.90;;;;;;5051303;28;20075;-74
2022/12/14 02:59:33;;;;;;;17.83;10.45;;;-1.80;99.90;;;;;;5052312;28;20025;-75
2022/12/14 03:02:02;;;;;;;17.65;10.52;;;-1.90;99.90;;;;;;5050854;28;20075;-74
2022/12/14 03:04:27;;;;;;;19.25;10.93;;;-1.90;99.90;;;;;;5052043;28;20032;-75
2022/12/14 03:07:01;;;;;;;15.07;9.25;;;-1.90;99.90;;;;;;5051003;28;20017;-74
2022/12/14 03:09:30;;;;;;;17.52;9.95;;;-1.90;99.90;;;;;;5052362;28;20097;-74
2022/12/14 03:12:04;;;;;;;19.75;10.23;;;-1.90;99.90;;;;;;5037796;28;20108;-73
2022/12/14 03:14:38;;;;;;;18.63;10.23;;;-2.00;99.90;;;;;;5052274;28;20033;-74
2022/12/14 03:17:14;;;;;;;17.17;9.95;;;-2.00;99.90;;;;;;5052142;28;20017;-75
2022/12/14 03:19:47;;;;;;;22.35;10.57;;;-2.00;99.90;;;;;;5052126;28;20029;-75
2022/12/14 03:22:43;;;;;;;17.48;9.65;;;-2.00;99.90;;;;;;5051171;28;20029;-76
2022/12/14 03:25:15;;;;;;;22.60;10.63;;;-2.00;99.90;;;;;;5053628;28;20457;-76
2022/12/14 03:27:49;;;;;;;20.77;9.93;;;-2.00;99.90;;;;;;5056317;28;20112;-76
2022/12/14 03:30:17;;;;;;;18.17;10.02;;;-2.00;99.90;;;;;;5055948;28;20060;-76
2022/12/14 03:32:53;;;;;;;16.38;9.57;;;-1.90;99.90;;;;;;5055776;28;20017;-75
2022/12/14 03:35:32;;;;;;;14.57;9.48;;;-1.90;99.90;;;;;;5055438;28;20021;-76
2022/12/14 03:38:04;;;;;;;16.80;9.23;;;-1.90;99.90;;;;;;5056049;28;20037;-75
2022/12/14 03:40:36;;;;;;;14.65;9.50;;;-2.00;99.90;;;;;;5058910;28;20046;-76
2022/12/14 03:43:15;;;;;;;21.30;10.25;;;-2.00;99.90;;;;;;5055771;28;20029;-75
2022/12/14 03:46:19;;;;;;;15.95;9.98;;;-2.00;99.90;;;;;;5059857;28;20048;-76
2022/12/14 03:48:50;;;;;;;16.25;9.90;;;-2.00;99.90;;;;;;5037154;28;20124;-76
2022/12/14 03:51:41;;;;;;;15.40;9.55;;;-2.00;99.90;;;;;;5051142;28;20159;-75
2022/12/14 03:54:25;;;;;;;17.45;9.90;;;-2.00;99.90;;;;;;5064471;28;20070;-74
2022/12/14 03:57:08;;;;;;;15.55;9.25;;;-2.00;99.90;;;;;;5065560;28;20029;-74
2022/12/14 03:59:46;;;;;;;15.00;10.18;;;-2.10;99.90;;;;;;5046766;28;20033;-75
2022/12/14 04:02:15;;;;;;;17.02;9.57;;;-2.00;99.90;;;;;;5038801;28;20485;-75
2022/12/14 04:04:49;;;;;;;17.00;9.93;;;-2.00;99.90;;;;;;5040927;28;20474;-75
2022/12/14 04:07:23;;;;;;;13.27;9.23;;;-2.00;99.90;;;;;;5038901;28;20037;-74
2022/12/14 04:10:02;;;;;;;18.98;10.60;;;-2.00;99.90;;;;;;5042588;28;20022;-75
2022/12/14 04:21:25;;;;;;;21.02;9.85;;;-2.00;99.90;;;;;;5034436;28;20040;-73
2022/12/14 04:27:07;;;;;;;15.48;9.00;;;-2.10;99.90;;;;;;5022804;28;20033;-75
2022/12/14 04:32:35;;;;;;;15.43;9.23;;;-2.20;99.90;;;;;;5032673;28;20044;-75
2022/12/14 04:35:24;;;;;;;20.27;11.80;;;-2.10;99.90;;;;;;5041581;28;20052;-74
2022/12/14 04:38:11;;;;;;;15.43;10.23;;;-2.10;99.90;;;;;;5041587;28;20108;-75
2022/12/14 04:40:46;;;;;;;15.15;8.93;;;-2.20;99.90;;;;;;5033651;28;20029;-76
2022/12/14 04:43:18;;;;;;;16.15;9.60;;;-2.30;99.90;;;;;;5034120;28;20022;-76
2022/12/14 04:45:53;;;;;;;18.85;9.52;;;-2.20;99.90;;;;;;5033961;28;20079;-75
2022/12/14 04:48:47;;;;;;;19.00;10.55;;;-2.30;99.90;;;;;;5034352;28;20118;-75
2022/12/14 04:51:25;;;;;;;18.10;9.70;;;-2.20;99.90;;;;;;5034285;28;20109;-74
2022/12/14 04:54:00;;;;;;;14.80;9.05;;;-2.30;99.90;;;;;;5033532;28;20044;-76
2022/12/14 04:56:45;;;;;;;18.48;9.68;;;-2.30;99.90;;;;;;5034711;28;20021;-76
2022/12/14 04:59:11;;;;;;;15.15;8.32;;;-2.30;99.90;;;;;;5023473;28;20029;-76
2022/12/14 05:01:57;;;;;;;16.90;10.10;;;-2.40;99.90;;;;;;5034560;28;20385;-77
2022/12/14 05:04:32;;;;;;;16.20;9.52;;;-2.40;99.90;;;;;;5023655;28;20076;-77
2022/12/14 05:07:21;;;;;;;17.73;10.52;;;-2.40;99.90;;;;;;5033588;28;20432;-77
2022/12/14 05:10:02;;;;;;;17.50;10.00;;;-2.40;99.90;;;;;;5014831;28;20045;-77
2022/12/14 05:12:38;;;;;;;22.65;9.95;;;-2.50;99.90;;;;;;5033640;28;20029;-76
2022/12/14 05:15:08;;;;;;;17.80;10.20;;;-2.50;99.90;;;;;;5021877;28;20107;-76
2022/12/14 05:17:38;;;;;;;17.37;10.03;;;-2.60;99.90;;;;;;5032041;28;20048;-77
2022/12/14 05:20:05;;;;;;;20.35;11.05;;;-2.60;99.90;;;;;;5033376;28;20553;-76
2022/12/14 05:22:30;;;;;;;17.23;10.18;;;-2.60;99.90;;;;;;5032708;28;20128;-77
2022/12/14 05:24:56;;;;;;;17.63;10.63;;;-2.60;99.90;;;;;;5033664;28;20171;-77
2022/12/14 05:27:22;;;;;;;18.77;11.00;;;-2.70;99.90;;;;;;5034156;28;20033;-76
2022/12/14 05:29:47;;;;;;;19.33;10.73;;;-2.80;99.90;;;;;;5034247;28;20018;-76
2022/12/14 05:32:13;;;;;;;21.90;9.98;;;-2.80;99.90;;;;;;5033118;28;20490;-78
2022/12/14 05:34:39;;;;;;;16.52;10.23;;;-2.80;99.90;;;;;;5033137;28;20067;-77
2022/12/14 05:37:04;;;;;;;19.77;10.80;;;-2.90;99.90;;;;;;5034505;28;20087;-76
2022/12/14 05:39:30;;;;;;;19.13;10.38;;;-2.90;99.90;;;;;;5035107;28;20037;-77
2022/12/14 05:41:56;;;;;;;16.38;10.23;;;-2.90;99.90;;;;;;5034076;28;20358;-78
2022/12/14 05:44:22;;;;;;;25.50;11.75;;;-2.90;99.90;;;;;;5034519;28;20371;-77
2022/12/14 05:46:49;;;;;;;16.02;9.70;;;-3.00;99.90;;;;;;5026684;28;20033;-77
2022/12/14 05:49:15;;;;;;;19.67;10.77;;;-3.00;99.90;;;;;;5025496;28;20112;-76
2022/12/14 05:51:40;;;;;;;22.05;10.95;;;-3.10;99.90;;;;;;5032948;28;20045;-76
2022/12/14 05:54:06;;;;;;;19.85;10.77;;;-3.10;99.90;;;;;;5033465;28;20030;-76
2022/12/14 05:56:32;;;;;;;19.63;10.98;;;-3.20;99.90;;;;;;5032571;28;20022;-77
2022/12/14 05:58:57;;;;;;;20.55;10.70;;;-3.20;99.90;;;;;;5033399;28;20036;-77
2022/12/14 06:01:23;;;;;;;18.50;10.88;;;-3.20;99.90;;;;;;5033782;28;20017;-76
2022/12/14 06:03:51;;;;;;;18.60;9.80;;;-3.20;99.90;;;;;;5033522;28;20037;-76
2022/12/14 06:06:16;;;;;;;18.48;10.43;;;-3.20;99.90;;;;;;5033111;28;20048;-76
2022/12/14 06:08:44;;;;;;;20.33;10.98;;;-3.20;99.90;;;;;;5027919;28;20458;-75
2022/12/14 06:11:19;;;;;;;20.23;11.25;;;-3.20;99.90;;;;;;5025298;28;20390;-77
2022/12/14 06:13:44;;;;;;;18.95;10.75;;;-3.30;99.90;;;;;;5017171;28;20025;-77
2022/12/14 06:16:14;;;;;;;16.52;9.88;;;-3.20;99.90;;;;;;5033743;28;20067;-77
2022/12/14 06:18:47;;;;;;;23.00;11.27;;;-3.30;99.90;;;;;;5017262;28;20052;-76
2022/12/14 06:21:14;;;;;;;21.90;10.93;;;-3.30;99.90;;;;;;5035045;28;20021;-77
2022/12/14 06:23:40;;;;;;;20.55;12.05;;;-3.30;99.90;;;;;;5033940;28;20053;-77
2022/12/14 06:26:07;;;;;;;27.50;13.23;;;-3.40;99.90;;;;;;5033498;28;20116;-78
2022/12/14 06:28:34;;;;;;;18.25;10.23;;;-3.40;99.90;;;;;;5028632;28;20018;-77
2022/12/14 06:31:00;;;;;;;18.58;10.43;;;-3.50;99.90;;;;;;5015020;28;20453;-78
2022/12/14 06:33:29;;;;;;;21.40;10.52;;;-3.60;99.90;;;;;;5042745;28;20032;-78
2022/12/14 06:35:54;;;;;;;17.55;10.82;;;-3.60;99.90;;;;;;5031568;28;20036;-78
2022/12/14 06:38:20;;;;;;;23.20;12.63;;;-3.60;99.90;;;;;;5031009;28;20021;-78
2022/12/14 06:40:46;;;;;;;21.92;11.75;;;-3.70;99.90;;;;;;5030707;28;20033;-78
2022/12/14 06:43:12;;;;;;;18.40;10.70;;;-3.70;99.90;;;;;;5031813;28;20044;-77
2022/12/14 06:45:37;;;;;;;19.45;10.65;;;-3.70;99.90;;;;;;5031155;28;20029;-78
2022/12/14 06:48:03;;;;;;;20.90;11.60;;;-3.70;99.90;;;;;;5033982;28;20022;-78
2022/12/14 06:50:29;;;;;;;22.50;11.55;;;-3.80;99.90;;;;;;5034396;28;20040;-79
2022/12/14 06:52:55;;;;;;;25.00;13.07;;;-3.80;99.90;;;;;;5033231;28;20117;-79
2022/12/14 06:55:22;;;;;;;23.75;11.35;;;-3.80;99.90;;;;;;5034332;28;20029;-78
2022/12/14 06:57:52;;;;;;;26.58;12.07;;;-3.90;99.90;;;;;;5031340;28;20112;-77
2022/12/14 07:00:19;;;;;;;20.97;12.13;;;-3.90;99.90;;;;;;5032532;28;20014;-78
2022/12/14 07:02:45;;;;;;;23.42;12.77;;;-3.90;99.90;;;;;;5035825;28;20049;-78
2022/12/14 07:05:11;;;;;;;27.17;12.50;;;-4.00;99.90;;;;;;5033876;28;20056;-77
2022/12/14 07:07:36;;;;;;;25.63;12.93;;;-4.00;99.90;;;;;;5035707;28;20026;-77
2022/12/14 07:10:03;;;;;;;24.50;12.55;;;-4.00;99.90;;;;;;5034189;28;20477;-78
2022/12/14 07:12:29;;;;;;;22.83;12.35;;;-4.00;99.90;;;;;;5034240;28;20021;-77
2022/12/14 07:14:57;;;;;;;21.58;12.85;;;-4.00;99.90;;;;;;5033889;28;20025;-77
2022/12/14 07:17:23;;;;;;;21.80;12.70;;;-4.10;99.90;;;;;;5035104;28;20021;-78
2022/12/14 07:19:49;;;;;;;21.92;11.95;;;-4.00;99.90;;;;;;5035644;28;20028;-77
2022/12/14 07:22:14;;;;;;;24.38;12.65;;;-4.50;99.90;;;;;;5034245;28;20030;-77
2022/12/14 07:24:40;;;;;;;23.23;12.45;;;-4.10;99.90;;;;;;5033887;28;20370;-78
2022/12/14 07:27:06;;;;;;;22.98;12.63;;;-4.10;99.90;;;;;;5034171;28;20091;-77
2022/12/14 07:29:32;;;;;;;23.05;12.07;;;-4.20;99.90;;;;;;5034222;28;20091;-78
2022/12/14 07:31:58;;;;;;;26.98;11.95;;;-4.20;99.90;;;;;;5033484;28;20485;-78
2022/12/14 07:34:24;;;;;;;22.88;12.55;;;-4.20;99.90;;;;;;5032642;28;20036;-77
2022/12/14 07:36:51;;;;;;;22.58;12.98;;;-4.10;99.90;;;;;;5033800;28;20052;-77
2022/12/14 07:39:17;;;;;;;22.33;11.23;;;-4.10;99.90;;;;;;5030907;28;20040;-78
2022/12/14 07:41:44;;;;;;;21.00;11.73;;;-4.20;99.90;;;;;;5032931;28;20019;-77
2022/12/14 07:44:10;;;;;;;25.00;11.93;;;-4.10;99.90;;;;;;5033184;28;20391;-79
2022/12/14 07:46:36;;;;;;;25.20;13.00;;;-4.10;99.90;;;;;;5033679;28;20052;-78
2022/12/14 07:49:03;;;;;;;22.52;11.85;;;-4.10;99.90;;;;;;5035710;28;20049;-77
2022/12/14 07:51:31;;;;;;;22.02;12.27;;;-4.10;99.90;;;;;;5036763;28;20481;-78
2022/12/14 07:53:58;;;;;;;23.63;12.20;;;-4.10;99.90;;;;;;5044488;28;20524;-78
2022/12/14 07:56:30;;;;;;;24.80;11.20;;;-4.10;99.90;;;;;;5037067;28;20018;-78
2022/12/14 07:58:57;;;;;;;22.80;11.52;;;-4.00;99.90;;;;;;5034242;28;20033;-79
2022/12/14 08:01:25;;;;;;;21.02;11.40;;;-4.10;99.90;;;;;;5022051;28;20022;-77
2022/12/14 08:04:12;;;;;;;22.35;12.07;;;-4.10;99.90;;;;;;5037156;28;20033;-78
2022/12/14 08:06:39;;;;;;;21.70;11.73;;;-4.10;99.90;;;;;;5034833;28;20395;-77
2022/12/14 08:09:06;;;;;;;24.63;11.50;;;-4.10;99.90;;;;;;5036264;28;20052;-78
2022/12/14 08:11:31;;;;;;;21.38;11.57;;;-4.00;99.90;;;;;;5036215;28;20025;-79
2022/12/14 08:14:06;;;;;;;20.02;10.60;;;-4.10;99.90;;;;;;5036626;28;20508;-77
2022/12/14 08:16:32;;;;;;;19.30;10.82;;;-4.00;99.90;;;;;;5024703;28;20107;-77
2022/12/14 08:18:59;;;;;;;18.20;10.70;;;-4.00;99.90;;;;;;5032994;28;20710;-78
2022/12/14 08:21:25;;;;;;;20.95;10.98;;;-4.10;99.90;;;;;;5034150;28;20034;-77
2022/12/14 08:23:52;;;;;;;18.38;10.90;;;-4.00;99.90;;;;;;5033739;28;20040;-79
2022/12/14 08:26:18;;;;;;;25.10;11.98;;;-4.00;99.90;;;;;;5032455;28;20026;-77
2022/12/14 08:28:44;;;;;;;21.70;12.18;;;-4.00;99.90;;;;;;5035599;28;20041;-82
2022/12/14 08:31:19;;;;;;;23.35;11.93;;;-4.00;99.90;;;;;;5039300;28;20048;-85
2022/12/14 08:33:48;;;;;;;18.95;11.75;;;-3.90;99.90;;;;;;5063216;28;20005;-84
2022/12/14 08:36:23;;;;;;;19.48;10.75;;;-3.90;99.90;;;;;;5063416;28;20113;-85
2022/12/14 08:38:56;;;;;;;26.52;10.40;;;-3.90;99.90;;;;;;5047665;28;20030;-86
2022/12/14 08:41:23;;;;;;;24.25;13.38;;;-4.00;99.90;;;;;;5057114;28;20056;-86
2022/12/14 08:43:50;;;;;;;29.70;11.18;;;-3.90;99.90;;;;;;5058101;28;20052;-84
2022/12/14 08:46:16;;;;;;;23.05;10.77;;;-3.80;99.90;;;;;;5039808;28;20032;-84
2022/12/14 08:48:42;;;;;;;21.75;11.23;;;-3.80;99.90;;;;;;5040428;28;20044;-82
2022/12/14 08:51:09;;;;;;;20.85;11.32;;;-3.70;99.90;;;;;;5036464;28;20572;-82
2022/12/14 08:53:36;;;;;;;22.67;11.52;;;-3.60;99.90;;;;;;5038429;28;20119;-83
2022/12/14 08:56:10;;;;;;;19.35;11.57;;;-3.60;99.90;;;;;;5040293;28;20021;-85
2022/12/14 08:58:38;;;;;;;24.17;11.63;;;-3.60;99.90;;;;;;5046907;28;20111;-84
2022/12/14 09:01:13;;;;;;;25.50;11.63;;;-3.60;99.90;;;;;;5045546;28;20021;-83
2022/12/14 09:03:40;;;;;;;20.90;10.85;;;-3.60;99.90;;;;;;5037669;28;20069;-84
2022/12/14 09:06:08;;;;;;;25.10;10.77;;;-3.50;99.90;;;;;;5029725;28;20025;-83
2022/12/14 09:08:34;;;;;;;20.23;10.48;;;-3.50;99.90;;;;;;5035117;28;20096;-83
2022/12/14 09:11:01;;;;;;;22.85;10.57;;;-3.50;99.90;;;;;;5036991;28;20025;-84
2022/12/14 09:13:27;;;;;;;15.27;10.23;;;-3.40;99.90;;;;;;5035599;28;20033;-80
2022/12/14 09:15:58;;;;;;;18.10;10.25;;;-3.30;99.90;;;;;;5033333;28;20021;-81
2022/12/14 09:18:24;;;;;;;19.52;10.50;;;-3.20;99.90;;;;;;5032548;28;20045;-78
2022/12/14 09:20:53;;;;;;;23.42;10.90;;;-3.20;99.90;;;;;;5033305;28;20022;-78
2022/12/14 09:23:20;;;;;;;19.88;9.40;;;-3.10;99.90;;;;;;5031931;28;20088;-79
2022/12/14 09:25:56;;;;;;;19.10;10.55;;;-3.00;99.90;;;;;;5033901;28;20042;-82
2022/12/14 09:28:21;;;;;;;20.42;10.35;;;-3.10;99.90;;;;;;5033502;28;20025;-81
2022/12/14 09:30:52;;;;;;;17.48;10.00;;;-3.00;99.90;;;;;;5034899;28;20046;-83
2022/12/14 09:33:17;;;;;;;;;;;-2.90;99.90;;;;;;5032906;28;20039;-83
2022/12/14 09:35:43;;;;;;;20.08;10.13;;;-2.90;99.90;;;;;;5032958;28;20340;-82
2022/12/14 09:38:08;;;;;;;19.13;9.43;;;-2.80;99.90;;;;;;5034706;28;20363;-86
2022/12/14 09:40:36;;;;;;;15.48;9.95;;;-2.70;99.90;;;;;;5036699;28;20032;-83
2022/12/14 09:43:05;;;;;;;18.90;9.90;;;-2.70;99.90;;;;;;5035461;28;20589;-83
2022/12/14 09:45:39;;;;;;;18.20;10.02;;;-2.60;99.90;;;;;;5037726;28;20120;-84
2022/12/14 09:48:19;;;;;;;20.48;11.75;;;-2.50;99.90;;;;;;5036778;28;20024;-84
2022/12/14 09:50:49;;;;;;;20.33;9.77;;;-2.50;99.90;;;;;;5032576;28;20513;-83
2022/12/14 09:53:17;;;;;;;22.17;11.13;;;-2.40;99.90;;;;;;5034645;28;20108;-81
2022/12/14 09:55:45;;;;;;;16.70;9.18;;;-2.30;99.90;;;;;;5039302;28;20041;-83
2022/12/14 09:58:11;;;;;;;16.55;10.93;;;-2.20;99.90;;;;;;5036910;28;20029;-83
2022/12/14 10:00:46;;;;;;;17.55;10.30;;;-2.20;99.90;;;;;;5037030;28;20588;-72
2022/12/14 10:03:23;;;;;;;22.77;12.95;;;-2.10;99.90;;;;;;5037466;28;20495;-81
2022/12/14 10:06:20;;;;;;;20.98;12.23;;;-2.10;99.90;;;;;;5040367;28;20478;-80
2022/12/14 10:09:10;;;;;;;33.65;15.55;;;-2.00;99.90;;;;;;5031731;28;20052;-79
2022/12/14 10:11:38;;;;;;;35.88;18.55;;;-2.00;99.90;;;;;;5033940;28;20090;-84
2022/12/14 10:14:25;;;;;;;38.97;20.05;;;-2.00;99.90;;;;;;5036366;28;20017;-83
2022/12/14 10:17:11;;;;;;;28.58;15.52;;;-1.90;99.90;;;;;;5037481;28;20493;-82
2022/12/14 10:19:53;;;;;;;42.05;20.73;;;-1.80;99.90;;;;;;5035014;28;20061;-80
2022/12/14 10:22:27;;;;;;;39.47;20.42;;;-1.70;99.90;;;;;;5035189;28;20036;-82
2022/12/14 10:25:15;;;;;;;25.08;15.30;;;-1.60;99.90;;;;;;5040452;28;20319;-81
2022/12/14 10:27:49;;;;;;;21.35;12.27;;;-1.60;99.90;;;;;;5045899;28;20554;-84
2022/12/14 10:30:18;;;;;;;14.60;9.80;;;-1.50;99.90;;;;;;5038330;28;20025;-82
2022/12/14 10:32:51;;;;;;;17.65;9.73;;;-1.50;99.90;;;;;;5036198;28;20426;-81
2022/12/14 10:35:19;;;;;;;14.88;9.30;;;-1.40;99.90;;;;;;5036487;28;20416;-81
2022/12/14 10:37:52;;;;;;;18.95;10.23;;;-1.40;99.90;;;;;;5040156;28;20037;-81
2022/12/14 10:40:40;;;;;;;18.80;9.80;;;-1.30;99.90;;;;;;5038850;28;20061;-80
2022/12/14 10:43:33;;;;;;;15.20;9.35;;;-1.20;99.90;;;;;;5036032;28;20056;-80
2022/12/14 10:46:23;;;;;;;15.48;8.60;;;-1.20;99.90;;;;;;5036875;28;20061;-80
2022/12/14 10:49:00;;;;;;;16.95;8.52;;;-1.20;99.90;;;;;;5034249;28;20040;-81
2022/12/14 10:51:57;;;;;;;12.77;8.45;;;-1.10;99.90;;;;;;5035925;28;20107;-80
2022/12/14 10:54:48;;;;;;;12.23;8.48;;;-1.10;99.90;;;;;;5035222;28;20037;-81
2022/12/14 10:57:23;;;;;;;15.13;9.80;;;-1.00;99.90;;;;;;5036315;28;20489;-80
2022/12/14 10:59:50;;;;;;;15.25;9.35;;;-1.00;99.90;;;;;;5034398;28;20108;-80
2022/12/14 11:02:30;;;;;;;16.80;9.13;;;-1.00;99.90;;;;;;5029037;28;20036;-80
2022/12/14 11:04:58;;;;;;;14.55;7.78;;;-1.00;99.90;;;;;;5032614;28;20041;-78
2022/12/14 11:07:33;;;;;;;13.60;8.85;;;-0.90;99.90;;;;;;5037220;28;20057;-81
2022/12/14 11:10:21;;;;;;;17.55;9.55;;;-0.80;99.90;;;;;;5037847;28;20036;-81
2022/12/14 11:13:11;;;;;;;14.57;8.93;;;-0.80;99.90;;;;;;5035940;28;20479;-81
2022/12/14 11:15:51;;;;;;;17.17;9.13;;;-0.80;99.90;;;;;;5034559;28;20481;-82
2022/12/14 11:18:18;;;;;;;17.00;8.50;;;-0.70;99.90;;;;;;5038837;28;20025;-80
2022/12/14 11:20:58;;;;;;;16.38;9.45;;;-0.60;99.90;;;;;;5038826;28;20025;-81
2022/12/14 11:23:28;;;;;;;14.73;8.18;;;-0.60;99.90;;;;;;5048094;28;20059;-81
2022/12/14 11:25:59;;;;;;;17.92;9.68;;;-0.50;99.90;;;;;;5041681;28;20049;-79
2022/12/14 11:28:28;;;;;;;11.73;8.73;;;-0.40;99.90;;;;;;5038096;28;20037;-78
2022/12/14 11:31:07;;;;;;;12.25;7.63;;;-0.30;99.90;;;;;;5045433;28;20049;-78
2022/12/14 11:33:38;;;;;;;15.98;8.43;;;-0.20;99.90;;;;;;5041960;28;20021;-79
2022/12/14 11:36:04;;;;;;;16.85;8.82;;;-0.20;99.90;;;;;;5036998;28;20026;-80
2022/12/14 11:38:31;;;;;;;14.13;8.95;;;-0.20;99.90;;;;;;5028449;28;20030;-81
2022/12/14 11:40:59;;;;;;;18.52;9.25;;;-0.20;99.90;;;;;;5024269;28;20037;-80
2022/12/14 11:43:37;;;;;;;24.83;12.32;;;-0.10;99.90;;;;;;5027704;28;20555;-80
2022/12/14 11:46:04;;;;;;;25.35;13.10;;;-0.10;99.90;;;;;;5028917;28;20061;-80
2022/12/14 11:48:30;;;;;;;25.85;13.52;;;0.00;99.90;;;;;;5024289;28;20078;-79
2022/12/14 11:51:12;;;;;;;25.65;13.82;;;0.00;99.90;;;;;;5032207;28;20511;-79
2022/12/14 11:53:39;;;;;;;28.15;13.10;;;0.00;99.90;;;;;;5035502;28;20017;-78
2022/12/14 11:56:11;;;;;;;25.15;11.80;;;-0.10;99.90;;;;;;5034732;28;20029;-78
2022/12/14 11:58:46;;;;;;;15.98;9.93;;;-0.10;99.90;;;;;;5034421;28;20036;-77
2022/12/14 12:01:16;;;;;;;20.10;9.98;;;-0.10;99.90;;;;;;5037601;28;20048;-79
2022/12/14 12:03:46;;;;;;;20.40;9.88;;;-0.20;99.90;;;;;;5032045;28;20018;-78
2022/12/14 12:06:17;;;;;;;13.25;8.10;;;0.00;99.90;;;;;;5034811;28;20073;-78
2022/12/14 12:08:43;;;;;;;20.38;10.48;;;-0.10;99.90;;;;;;5030883;28;20116;-78
2022/12/14 12:11:18;;;;;;;16.38;10.15;;;-0.10;99.90;;;;;;5028096;28;20032;-78
2022/12/14 12:13:49;;;;;;;15.85;9.25;;;0.00;99.90;;;;;;5028229;28;20085;-78
2022/12/14 12:16:19;;;;;;;14.95;10.05;;;-0.10;99.90;;;;;;5025597;28;20099;-77
2022/12/14 12:18:56;;;;;;;21.83;12.10;;;-0.10;99.90;;;;;;5024120;28;20060;-78
2022/12/14 12:21:26;;;;;;;18.58;10.88;;;0.00;99.90;;;;;;5026993;28;20037;-78
2022/12/14 12:23:55;;;;;;;;;;;0.10;99.90;;;;;;5034462;28;20046;-81
2022/12/14 12:26:28;;;;;;;21.73;11.05;;;0.10;99.90;;;;;;5039166;28;19909;-77
2022/12/14 12:29:11;;;;;;;21.42;11.73;;;0.10;99.90;;;;;;5033105;28;20030;-80
2022/12/14 12:32:05;;;;;;;20.67;11.70;;;0.20;99.90;;;;;;5031091;28;20455;-80
2022/12/14 12:34:40;;;;;;;20.15;12.38;;;0.20;99.90;;;;;;5024591;28;20393;-81
2022/12/14 12:37:13;;;;;;;20.85;11.43;;;0.20;99.90;;;;;;5036461;28;20048;-81
2022/12/14 12:39:41;;;;;;;21.48;10.73;;;1.20;99.90;;;;;;5035600;28;20080;-80
2022/12/14 12:42:37;;;;;;;21.17;11.80;;;0.30;99.90;;;;;;5035538;28;20393;-79
2022/12/14 12:45:29;;;;;;;19.33;11.40;;;0.30;99.90;;;;;;5034743;28;20478;-79
2022/12/14 12:48:13;;;;;;;18.88;10.55;;;0.30;99.90;;;;;;5034470;28;20025;-80
2022/12/14 12:50:44;;;;;;;16.55;10.40;;;0.30;99.90;;;;;;5034603;28;20026;-81
2022/12/14 12:53:20;;;;;;;15.65;9.38;;;0.20;99.90;;;;;;5035822;28;20033;-79
2022/12/14 12:55:53;;;;;;;14.85;9.77;;;0.30;99.90;;;;;;5037135;28;20029;-79
2022/12/14 12:58:24;;;;;;;18.15;9.93;;;0.30;99.90;;;;;;5035881;28;20075;-80
2022/12/14 13:00:54;;;;;;;15.82;9.25;;;0.30;99.90;;;;;;5037565;28;20033;-81
2022/12/14 13:03:36;;;;;;;12.73;9.17;;;0.30;99.90;;;;;;5037608;28;20021;-78
2022/12/14 13:06:15;;;;;;;14.40;8.77;;;0.30;99.90;;;;;;5036928;28;20501;-79
2022/12/14 13:08:44;;;;;;;14.68;9.45;;;0.40;99.90;;;;;;5037074;28;20026;-80